Map

Track Data

SID SEASON NUMBER BASIN SUBBASIN NAME ISO_TIME NATURE LAT LON WMO_WIND WMO_PRES WMO_AGENCY TRACK_TYPE DIST2LAND LANDFALL IFLAG USA_AGENCY USA_ATCF_ID USA_LAT USA_LON USA_RECORD USA_STATUS USA_WIND USA_PRES USA_SSHS USA_R34_NE USA_R34_SE USA_R34_SW USA_R34_NW USA_R50_NE USA_R50_SE USA_R50_SW USA_R50_NW USA_R64_NE USA_R64_SE USA_R64_SW USA_R64_NW USA_POCI USA_ROCI USA_RMW USA_EYE TOKYO_LAT TOKYO_LON TOKYO_GRADE TOKYO_WIND TOKYO_PRES TOKYO_R50_DIR TOKYO_R50_LONG TOKYO_R50_SHORT TOKYO_R30_DIR TOKYO_R30_LONG TOKYO_R30_SHORT TOKYO_LAND CMA_LAT CMA_LON CMA_CAT CMA_WIND CMA_PRES HKO_LAT HKO_LON HKO_CAT HKO_WIND HKO_PRES NEWDELHI_LAT NEWDELHI_LON NEWDELHI_GRADE NEWDELHI_WIND NEWDELHI_PRES NEWDELHI_CI NEWDELHI_DP NEWDELHI_POCI REUNION_LAT REUNION_LON REUNION_TYPE REUNION_WIND REUNION_PRES REUNION_TNUM REUNION_CI REUNION_RMW REUNION_R34_NE REUNION_R34_SE REUNION_R34_SW REUNION_R34_NW REUNION_R50_NE REUNION_R50_SE REUNION_R50_SW REUNION_R50_NW REUNION_R64_NE REUNION_R64_SE REUNION_R64_SW REUNION_R64_NW BOM_LAT BOM_LON BOM_TYPE BOM_WIND BOM_PRES BOM_TNUM BOM_CI BOM_RMW BOM_R34_NE BOM_R34_SE BOM_R34_SW BOM_R34_NW BOM_R50_NE BOM_R50_SE BOM_R50_SW BOM_R50_NW BOM_R64_NE BOM_R64_SE BOM_R64_SW BOM_R64_NW BOM_ROCI BOM_POCI BOM_EYE BOM_POS_METHOD BOM_PRES_METHOD NADI_LAT NADI_LON NADI_CAT NADI_WIND NADI_PRES WELLINGTON_LAT WELLINGTON_LON WELLINGTON_WIND WELLINGTON_PRES DS824_LAT DS824_LON DS824_STAGE DS824_WIND DS824_PRES TD9636_LAT TD9636_LON TD9636_STAGE TD9636_WIND TD9636_PRES TD9635_LAT TD9635_LON TD9635_WIND TD9635_PRES TD9635_ROCI NEUMANN_LAT NEUMANN_LON NEUMANN_CLASS NEUMANN_WIND NEUMANN_PRES MLC_LAT MLC_LON MLC_CLASS MLC_WIND MLC_PRES USA_GUST BOM_GUST BOM_GUST_PER REUNION_GUST REUNION_GUST_PER USA_SEAHGT USA_SEARAD_NE USA_SEARAD_SE USA_SEARAD_SW USA_SEARAD_NW STORM_SPEED STORM_DIR
1910042S15068 1910 9 SI MM NOT_NAMED 1910-02-11 00:00:00 TS -15.0000 67.5000 main 1185 1149 _________O____ -1 -15.0000 67.5000 TC 8 211
1910042S15068 1910 9 SI MM NOT_NAMED 1910-02-11 03:00:00 TS -15.3400 67.2926 main 1149 1109 _________P____ -1 -15.3400 67.2926 TC 8 209
1910042S15068 1910 9 SI MM NOT_NAMED 1910-02-11 06:00:00 TS -15.7000 67.1000 main 1109 1069 _________O____ -1 -15.7000 67.1000 TC 8 205
1910042S15068 1910 9 SI MM NOT_NAMED 1910-02-11 09:00:00 TS -16.0925 66.9350 main 1069 1040 _________P____ -1 -16.0925 66.9350 TC 9 200
1910042S15068 1910 9 SI MM NOT_NAMED 1910-02-11 12:00:00 TS -16.5000 66.8000 main 1040 1011 _________O____ -1 -16.5000 66.8000 TC 8 196
1910042S15068 1910 9 SI MM NOT_NAMED 1910-02-11 15:00:00 TS -16.8925 66.6924 main 1011 985 _________P____ -1 -16.8925 66.6924 TC 8 193
1910042S15068 1910 9 SI MM NOT_NAMED 1910-02-11 18:00:00 TS -17.3000 66.6000 main 985 959 _________O____ -1 -17.3000 66.6000 TC 9 193
1910042S15068 1910 9 SI MM NOT_NAMED 1910-02-11 21:00:00 TS -17.7350 66.4925 main 959 932 _________P____ -1 -17.7350 66.4925 TC 9 192
1910042S15068 1910 9 SI MM NOT_NAMED 1910-02-12 00:00:00 TS -18.2000 66.4000 main 932 908 _________O____ -1 -18.2000 66.4000 TC 10 189
1910042S15068 1910 9 SI MM NOT_NAMED 1910-02-12 03:00:00 TS -18.6925 66.3350 main 908 897 _________P____ -1 -18.6925 66.3350 TC 10 186
1910042S15068 1910 9 SI MM NOT_NAMED 1910-02-12 06:00:00 TS -19.2000 66.3000 main 897 890 _________O____ -1 -19.2000 66.3000 TC 10 182
1910042S15068 1910 9 SI MM NOT_NAMED 1910-02-12 09:00:00 TS -19.7075 66.2850 main 890 886 _________P____ -1 -19.7075 66.2850 TC 10 179
1910042S15068 1910 9 SI MM NOT_NAMED 1910-02-12 12:00:00 TS -20.2000 66.3000 main 886 885 _________O____ -1 -20.2000 66.3000 TC 10 176
1910042S15068 1910 9 SI MM NOT_NAMED 1910-02-12 15:00:00 TS -20.6650 66.3425 main 886 886 _________P____ -1 -20.6650 66.3425 TC 9 174
1910042S15068 1910 9 SI MM NOT_NAMED 1910-02-12 18:00:00 TS -21.1000 66.4000 main 898 898 _________O____ -1 -21.1000 66.4000 TC 8 174
1910042S15068 1910 9 SI MM NOT_NAMED 1910-02-12 21:00:00 TS -21.5000 66.4352 main 903 903 _________P____ -1 -21.5000 66.4352 TC 8 173
1910042S15068 1910 9 SI MM NOT_NAMED 1910-02-13 00:00:00 TS -21.9000 66.5000 main 919 919 _________O____ -1 -21.9000 66.5000 TC 9 168
1910042S15068 1910 9 SI MM NOT_NAMED 1910-02-13 03:00:00 TS -22.3500 66.6275 main 938 938 _________P____ -1 -22.3500 66.6275 TC 9 163
1910042S15068 1910 9 SI MM NOT_NAMED 1910-02-13 06:00:00 TS -22.8000 66.8000 main 971 971 _________O____ -1 -22.8000 66.8000 TC 9 159
1910042S15068 1910 9 SI MM NOT_NAMED 1910-02-13 09:00:00 TS -23.1774 66.9705 main 1003 1003 _________P____ -1 -23.1774 66.9705 TC 9 155
1910042S15068 1910 9 SI MM NOT_NAMED 1910-02-13 12:00:00 TS -23.6000 67.2000 main 1036 1036 _________O____ -1 -23.6000 67.2000 TC 11 153
1910042S15068 1910 9 SI MM NOT_NAMED 1910-02-13 15:00:00 TS -24.1775 67.5199 main 1088 1088 _________P____ -1 -24.1775 67.5199 TC 14 152
1910042S15068 1910 9 SI MM NOT_NAMED 1910-02-13 18:00:00 TS -24.8000 67.9000 main 1150 1150 _________O____ -1 -24.8000 67.9000 TC 14 149
1910042S15068 1910 9 SI MM NOT_NAMED 1910-02-13 21:00:00 TS -25.3702 68.2970 main 1214 1214 _________P____ -1 -25.3702 68.2970 TC 13 147
1910042S15068 1910 9 SI MM NOT_NAMED 1910-02-14 00:00:00 TS -25.9000 68.7000 main 1274 _________O____ -1 -25.9000 68.7000 TC 13 146

About IBTrACS Database

This database is a web-friendly format of International Best Track Archive for Climate Stewardship (IBTrACS), a global best track data archive curated by NOAA dating back to 1842.

Updated: 2021-10-21